sensor_id;sensor_type;location;lat;lon;timestamp;P1;durP1;ratioP1;P2;durP2;ratioP2
80536;SDS011;69867;47.074;15.404;2023-11-21T00:00:00;10.48;;;4.90;;
80536;SDS011;69867;47.074;15.404;2023-11-21T00:02:26;9.88;;;4.95;;
80536;SDS011;69867;47.074;15.404;2023-11-21T00:04:51;8.35;;;4.75;;
80536;SDS011;69867;47.074;15.404;2023-11-21T00:07:16;14.18;;;4.53;;
80536;SDS011;69867;47.074;15.404;2023-11-21T00:09:42;8.75;;;4.35;;
80536;SDS011;69867;47.074;15.404;2023-11-21T00:12:08;8.05;;;4.60;;
80536;SDS011;69867;47.074;15.404;2023-11-21T00:14:33;7.15;;;3.70;;
80536;SDS011;69867;47.074;15.404;2023-11-21T00:16:58;6.32;;;3.65;;
80536;SDS011;69867;47.074;15.404;2023-11-21T00:19:24;7.60;;;4.10;;
80536;SDS011;69867;47.074;15.404;2023-11-21T00:21:49;9.82;;;4.65;;
80536;SDS011;69867;47.074;15.404;2023-11-21T00:24:14;8.77;;;4.25;;
80536;SDS011;69867;47.074;15.404;2023-11-21T00:26:40;11.80;;;5.07;;
80536;SDS011;69867;47.074;15.404;2023-11-21T00:29:05;10.77;;;4.50;;
80536;SDS011;69867;47.074;15.404;2023-11-21T00:31:31;8.85;;;4.57;;
80536;SDS011;69867;47.074;15.404;2023-11-21T00:33:56;9.32;;;4.95;;
80536;SDS011;69867;47.074;15.404;2023-11-21T00:36:21;10.35;;;5.03;;
80536;SDS011;69867;47.074;15.404;2023-11-21T00:38:47;7.97;;;4.45;;
80536;SDS011;69867;47.074;15.404;2023-11-21T00:41:12;7.05;;;4.57;;
80536;SDS011;69867;47.074;15.404;2023-11-21T00:43:37;8.55;;;4.25;;
80536;SDS011;69867;47.074;15.404;2023-11-21T00:46:06;7.28;;;4.18;;
80536;SDS011;69867;47.074;15.404;2023-11-21T00:48:31;8.38;;;4.70;;
80536;SDS011;69867;47.074;15.404;2023-11-21T00:50:57;7.20;;;3.75;;
80536;SDS011;69867;47.074;15.404;2023-11-21T00:53:22;9.15;;;4.35;;
80536;SDS011;69867;47.074;15.404;2023-11-21T00:55:47;8.82;;;4.30;;
80536;SDS011;69867;47.074;15.404;2023-11-21T00:58:12;9.85;;;4.20;;
80536;SDS011;69867;47.074;15.404;2023-11-21T01:00:38;9.73;;;4.60;;
80536;SDS011;69867;47.074;15.404;2023-11-21T01:03:03;7.85;;;3.92;;
80536;SDS011;69867;47.074;15.404;2023-11-21T01:05:29;9.20;;;3.90;;
80536;SDS011;69867;47.074;15.404;2023-11-21T01:07:54;9.00;;;4.10;;
80536;SDS011;69867;47.074;15.404;2023-11-21T01:10:19;7.40;;;3.85;;
80536;SDS011;69867;47.074;15.404;2023-11-21T01:12:44;7.15;;;3.53;;
80536;SDS011;69867;47.074;15.404;2023-11-21T01:15:10;6.82;;;3.47;;
80536;SDS011;69867;47.074;15.404;2023-11-21T01:17:35;8.02;;;3.45;;
80536;SDS011;69867;47.074;15.404;2023-11-21T01:20:01;9.70;;;4.30;;
80536;SDS011;69867;47.074;15.404;2023-11-21T01:22:27;8.23;;;3.78;;
80536;SDS011;69867;47.074;15.404;2023-11-21T01:24:53;7.38;;;3.72;;
80536;SDS011;69867;47.074;15.404;2023-11-21T01:27:18;9.20;;;4.25;;
80536;SDS011;69867;47.074;15.404;2023-11-21T01:29:44;10.75;;;4.18;;
80536;SDS011;69867;47.074;15.404;2023-11-21T01:32:10;9.70;;;4.85;;
80536;SDS011;69867;47.074;15.404;2023-11-21T01:34:35;7.78;;;4.47;;
80536;SDS011;69867;47.074;15.404;2023-11-21T01:37:01;9.50;;;4.72;;
80536;SDS011;69867;47.074;15.404;2023-11-21T01:39:26;11.50;;;5.30;;
80536;SDS011;69867;47.074;15.404;2023-11-21T01:41:52;9.48;;;5.20;;
80536;SDS011;69867;47.074;15.404;2023-11-21T01:44:18;10.18;;;4.38;;
80536;SDS011;69867;47.074;15.404;2023-11-21T01:46:43;8.50;;;4.32;;
80536;SDS011;69867;47.074;15.404;2023-11-21T01:49:09;9.82;;;4.88;;
80536;SDS011;69867;47.074;15.404;2023-11-21T01:51:35;11.35;;;5.15;;
80536;SDS011;69867;47.074;15.404;2023-11-21T01:54:01;9.30;;;4.55;;
80536;SDS011;69867;47.074;15.404;2023-11-21T01:56:28;11.40;;;5.60;;
80536;SDS011;69867;47.074;15.404;2023-11-21T01:58:54;11.18;;;4.93;;
80536;SDS011;69867;47.074;15.404;2023-11-21T02:01:19;9.30;;;4.85;;
80536;SDS011;69867;47.074;15.404;2023-11-21T02:03:44;9.75;;;5.53;;
80536;SDS011;69867;47.074;15.404;2023-11-21T02:06:10;11.68;;;5.18;;
80536;SDS011;69867;47.074;15.404;2023-11-21T02:08:35;9.73;;;4.68;;
80536;SDS011;69867;47.074;15.404;2023-11-21T02:11:00;9.63;;;4.47;;
80536;SDS011;69867;47.074;15.404;2023-11-21T02:13:26;10.52;;;4.70;;
80536;SDS011;69867;47.074;15.404;2023-11-21T02:15:51;9.52;;;4.55;;
80536;SDS011;69867;47.074;15.404;2023-11-21T02:18:16;10.32;;;4.55;;
80536;SDS011;69867;47.074;15.404;2023-11-21T02:20:42;9.95;;;4.05;;
80536;SDS011;69867;47.074;15.404;2023-11-21T02:23:07;8.90;;;3.97;;
80536;SDS011;69867;47.074;15.404;2023-11-21T02:25:33;7.05;;;3.95;;
80536;SDS011;69867;47.074;15.404;2023-11-21T02:28:02;9.20;;;4.45;;
80536;SDS011;69867;47.074;15.404;2023-11-21T02:30:28;9.13;;;3.80;;
80536;SDS011;69867;47.074;15.404;2023-11-21T02:32:54;8.77;;;4.00;;
80536;SDS011;69867;47.074;15.404;2023-11-21T02:35:20;7.57;;;3.60;;
80536;SDS011;69867;47.074;15.404;2023-11-21T02:37:46;7.78;;;3.42;;
80536;SDS011;69867;47.074;15.404;2023-11-21T02:40:12;6.50;;;3.22;;
80536;SDS011;69867;47.074;15.404;2023-11-21T02:42:38;6.13;;;3.17;;
80536;SDS011;69867;47.074;15.404;2023-11-21T02:45:05;7.53;;;3.22;;
80536;SDS011;69867;47.074;15.404;2023-11-21T02:47:31;8.07;;;3.42;;
80536;SDS011;69867;47.074;15.404;2023-11-21T02:49:57;6.82;;;2.85;;
80536;SDS011;69867;47.074;15.404;2023-11-21T02:52:22;5.57;;;3.17;;
80536;SDS011;69867;47.074;15.404;2023-11-21T02:54:47;6.70;;;3.22;;
80536;SDS011;69867;47.074;15.404;2023-11-21T02:57:13;8.18;;;3.38;;
80536;SDS011;69867;47.074;15.404;2023-11-21T02:59:38;6.28;;;2.85;;
80536;SDS011;69867;47.074;15.404;2023-11-21T03:02:03;5.93;;;2.95;;
80536;SDS011;69867;47.074;15.404;2023-11-21T03:04:29;6.28;;;2.88;;
80536;SDS011;69867;47.074;15.404;2023-11-21T03:06:54;6.10;;;3.00;;
80536;SDS011;69867;47.074;15.404;2023-11-21T03:09:19;7.50;;;3.17;;
80536;SDS011;69867;47.074;15.404;2023-11-21T03:11:45;7.55;;;3.00;;
80536;SDS011;69867;47.074;15.404;2023-11-21T03:14:10;7.40;;;3.25;;
80536;SDS011;69867;47.074;15.404;2023-11-21T03:16:35;7.05;;;3.25;;
80536;SDS011;69867;47.074;15.404;2023-11-21T03:19:01;5.75;;;3.03;;
80536;SDS011;69867;47.074;15.404;2023-11-21T03:21:26;5.07;;;2.67;;
80536;SDS011;69867;47.074;15.404;2023-11-21T03:23:51;6.65;;;2.50;;
80536;SDS011;69867;47.074;15.404;2023-11-21T03:26:17;6.03;;;2.55;;
80536;SDS011;69867;47.074;15.404;2023-11-21T03:28:42;5.65;;;2.70;;
80536;SDS011;69867;47.074;15.404;2023-11-21T03:31:07;6.32;;;2.85;;
80536;SDS011;69867;47.074;15.404;2023-11-21T03:33:33;6.38;;;3.25;;
80536;SDS011;69867;47.074;15.404;2023-11-21T03:35:58;7.63;;;3.20;;
80536;SDS011;69867;47.074;15.404;2023-11-21T03:38:23;5.72;;;3.15;;
80536;SDS011;69867;47.074;15.404;2023-11-21T03:40:49;9.90;;;3.40;;
80536;SDS011;69867;47.074;15.404;2023-11-21T03:43:14;6.57;;;3.38;;
80536;SDS011;69867;47.074;15.404;2023-11-21T03:45:39;8.77;;;2.80;;
80536;SDS011;69867;47.074;15.404;2023-11-21T03:48:05;5.05;;;2.53;;
80536;SDS011;69867;47.074;15.404;2023-11-21T03:50:30;6.93;;;2.53;;
80536;SDS011;69867;47.074;15.404;2023-11-21T03:52:55;4.95;;;2.65;;
80536;SDS011;69867;47.074;15.404;2023-11-21T03:55:21;6.65;;;2.63;;
80536;SDS011;69867;47.074;15.404;2023-11-21T03:57:46;4.88;;;2.47;;
80536;SDS011;69867;47.074;15.404;2023-11-21T04:00:11;5.55;;;2.97;;
80536;SDS011;69867;47.074;15.404;2023-11-21T04:02:37;7.80;;;2.80;;
80536;SDS011;69867;47.074;15.404;2023-11-21T04:05:02;7.38;;;2.90;;
80536;SDS011;69867;47.074;15.404;2023-11-21T04:07:28;5.82;;;2.15;;
80536;SDS011;69867;47.074;15.404;2023-11-21T04:09:54;7.57;;;3.30;;
80536;SDS011;69867;47.074;15.404;2023-11-21T04:12:19;6.20;;;2.75;;
80536;SDS011;69867;47.074;15.404;2023-11-21T04:14:45;5.60;;;2.38;;
80536;SDS011;69867;47.074;15.404;2023-11-21T04:17:10;6.47;;;3.70;;
80536;SDS011;69867;47.074;15.404;2023-11-21T04:19:35;6.50;;;2.88;;
80536;SDS011;69867;47.074;15.404;2023-11-21T04:22:01;6.93;;;3.05;;
80536;SDS011;69867;47.074;15.404;2023-11-21T04:24:26;7.25;;;2.63;;
80536;SDS011;69867;47.074;15.404;2023-11-21T04:26:51;5.72;;;2.70;;
80536;SDS011;69867;47.074;15.404;2023-11-21T04:29:17;6.88;;;2.75;;
80536;SDS011;69867;47.074;15.404;2023-11-21T04:31:42;5.97;;;2.30;;
80536;SDS011;69867;47.074;15.404;2023-11-21T04:34:07;6.25;;;2.92;;
80536;SDS011;69867;47.074;15.404;2023-11-21T04:36:33;7.05;;;3.03;;
80536;SDS011;69867;47.074;15.404;2023-11-21T04:38:58;7.55;;;3.67;;
80536;SDS011;69867;47.074;15.404;2023-11-21T04:41:23;7.68;;;3.47;;
80536;SDS011;69867;47.074;15.404;2023-11-21T04:43:49;6.15;;;3.70;;
80536;SDS011;69867;47.074;15.404;2023-11-21T04:46:14;7.03;;;3.03;;
80536;SDS011;69867;47.074;15.404;2023-11-21T04:48:40;6.60;;;3.15;;
80536;SDS011;69867;47.074;15.404;2023-11-21T04:51:05;7.25;;;3.38;;
80536;SDS011;69867;47.074;15.404;2023-11-21T04:53:30;7.93;;;3.08;;
80536;SDS011;69867;47.074;15.404;2023-11-21T04:55:56;7.30;;;3.25;;
80536;SDS011;69867;47.074;15.404;2023-11-21T04:58:21;8.63;;;3.67;;
80536;SDS011;69867;47.074;15.404;2023-11-21T05:00:46;5.88;;;2.90;;
80536;SDS011;69867;47.074;15.404;2023-11-21T05:03:12;6.57;;;3.80;;
80536;SDS011;69867;47.074;15.404;2023-11-21T05:05:37;5.30;;;2.92;;
80536;SDS011;69867;47.074;15.404;2023-11-21T05:08:02;7.10;;;3.45;;
80536;SDS011;69867;47.074;15.404;2023-11-21T05:10:28;6.68;;;3.55;;
80536;SDS011;69867;47.074;15.404;2023-11-21T05:12:53;8.10;;;3.47;;
80536;SDS011;69867;47.074;15.404;2023-11-21T05:15:19;6.78;;;3.22;;
80536;SDS011;69867;47.074;15.404;2023-11-21T05:17:44;5.03;;;2.95;;
80536;SDS011;69867;47.074;15.404;2023-11-21T05:20:10;5.85;;;2.85;;
80536;SDS011;69867;47.074;15.404;2023-11-21T05:22:36;5.32;;;3.22;;
80536;SDS011;69867;47.074;15.404;2023-11-21T05:25:02;6.45;;;2.95;;
80536;SDS011;69867;47.074;15.404;2023-11-21T05:27:28;5.55;;;2.80;;
80536;SDS011;69867;47.074;15.404;2023-11-21T05:29:53;7.00;;;3.00;;
80536;SDS011;69867;47.074;15.404;2023-11-21T05:32:18;5.45;;;3.08;;
80536;SDS011;69867;47.074;15.404;2023-11-21T05:34:44;6.53;;;3.50;;
80536;SDS011;69867;47.074;15.404;2023-11-21T05:37:09;7.22;;;3.28;;
80536;SDS011;69867;47.074;15.404;2023-11-21T05:39:34;6.55;;;3.30;;
80536;SDS011;69867;47.074;15.404;2023-11-21T05:42:00;8.65;;;3.90;;
80536;SDS011;69867;47.074;15.404;2023-11-21T05:44:25;6.95;;;3.70;;
80536;SDS011;69867;47.074;15.404;2023-11-21T05:46:50;6.07;;;3.13;;
80536;SDS011;69867;47.074;15.404;2023-11-21T05:49:16;7.72;;;3.63;;
80536;SDS011;69867;47.074;15.404;2023-11-21T05:51:41;7.07;;;3.53;;
80536;SDS011;69867;47.074;15.404;2023-11-21T05:54:07;8.35;;;3.90;;
80536;SDS011;69867;47.074;15.404;2023-11-21T05:56:33;7.28;;;3.30;;
80536;SDS011;69867;47.074;15.404;2023-11-21T05:58:59;6.63;;;3.33;;
80536;SDS011;69867;47.074;15.404;2023-11-21T06:01:24;5.97;;;3.50;;
80536;SDS011;69867;47.074;15.404;2023-11-21T06:03:50;7.55;;;3.90;;
80536;SDS011;69867;47.074;15.404;2023-11-21T06:06:15;6.68;;;3.40;;
80536;SDS011;69867;47.074;15.404;2023-11-21T06:08:41;7.60;;;3.80;;
80536;SDS011;69867;47.074;15.404;2023-11-21T06:11:06;8.07;;;3.75;;
80536;SDS011;69867;47.074;15.404;2023-11-21T06:13:31;8.20;;;3.42;;
80536;SDS011;69867;47.074;15.404;2023-11-21T06:15:57;6.90;;;3.35;;
80536;SDS011;69867;47.074;15.404;2023-11-21T06:18:22;5.80;;;3.13;;
80536;SDS011;69867;47.074;15.404;2023-11-21T06:20:47;7.35;;;3.47;;
80536;SDS011;69867;47.074;15.404;2023-11-21T06:23:12;8.35;;;4.18;;
80536;SDS011;69867;47.074;15.404;2023-11-21T06:25:38;5.70;;;3.53;;
80536;SDS011;69867;47.074;15.404;2023-11-21T06:28:03;8.70;;;4.30;;
80536;SDS011;69867;47.074;15.404;2023-11-21T06:30:29;7.75;;;4.22;;
80536;SDS011;69867;47.074;15.404;2023-11-21T06:32:54;8.00;;;3.80;;
80536;SDS011;69867;47.074;15.404;2023-11-21T06:35:20;7.93;;;3.97;;
80536;SDS011;69867;47.074;15.404;2023-11-21T06:37:45;8.68;;;4.50;;
80536;SDS011;69867;47.074;15.404;2023-11-21T06:40:11;11.90;;;5.25;;
80536;SDS011;69867;47.074;15.404;2023-11-21T06:42:36;10.70;;;5.05;;
80536;SDS011;69867;47.074;15.404;2023-11-21T06:45:01;9.68;;;4.72;;
80536;SDS011;69867;47.074;15.404;2023-11-21T06:47:27;9.85;;;4.78;;
80536;SDS011;69867;47.074;15.404;2023-11-21T06:49:52;8.45;;;4.45;;
80536;SDS011;69867;47.074;15.404;2023-11-21T06:52:18;7.88;;;4.60;;
80536;SDS011;69867;47.074;15.404;2023-11-21T06:54:44;8.07;;;4.13;;
80536;SDS011;69867;47.074;15.404;2023-11-21T06:57:10;7.43;;;3.88;;
80536;SDS011;69867;47.074;15.404;2023-11-21T06:59:35;6.65;;;3.42;;
80536;SDS011;69867;47.074;15.404;2023-11-21T07:02:01;7.90;;;4.22;;
80536;SDS011;69867;47.074;15.404;2023-11-21T07:04:26;6.13;;;3.53;;
80536;SDS011;69867;47.074;15.404;2023-11-21T07:06:53;9.88;;;4.82;;
80536;SDS011;69867;47.074;15.404;2023-11-21T07:09:18;7.10;;;4.07;;
80536;SDS011;69867;47.074;15.404;2023-11-21T07:11:44;11.70;;;4.97;;
80536;SDS011;69867;47.074;15.404;2023-11-21T07:14:09;10.85;;;5.72;;
80536;SDS011;69867;47.074;15.404;2023-11-21T07:16:35;8.48;;;4.78;;
80536;SDS011;69867;47.074;15.404;2023-11-21T07:19:00;8.30;;;4.85;;
80536;SDS011;69867;47.074;15.404;2023-11-21T07:21:26;10.00;;;4.30;;
80536;SDS011;69867;47.074;15.404;2023-11-21T07:23:51;9.82;;;5.10;;
80536;SDS011;69867;47.074;15.404;2023-11-21T07:26:16;10.32;;;5.03;;
80536;SDS011;69867;47.074;15.404;2023-11-21T07:28:42;7.68;;;3.97;;
80536;SDS011;69867;47.074;15.404;2023-11-21T07:31:07;6.60;;;3.92;;
80536;SDS011;69867;47.074;15.404;2023-11-21T07:33:32;8.85;;;4.35;;
80536;SDS011;69867;47.074;15.404;2023-11-21T07:35:58;6.60;;;3.63;;
80536;SDS011;69867;47.074;15.404;2023-11-21T07:38:23;8.95;;;4.00;;
80536;SDS011;69867;47.074;15.404;2023-11-21T07:40:51;12.60;;;4.88;;
80536;SDS011;69867;47.074;15.404;2023-11-21T07:43:16;9.35;;;4.90;;
80536;SDS011;69867;47.074;15.404;2023-11-21T07:45:41;8.57;;;4.07;;
80536;SDS011;69867;47.074;15.404;2023-11-21T07:48:07;7.93;;;3.55;;
80536;SDS011;69867;47.074;15.404;2023-11-21T07:50:32;8.13;;;4.10;;
80536;SDS011;69867;47.074;15.404;2023-11-21T07:52:57;8.05;;;4.32;;
80536;SDS011;69867;47.074;15.404;2023-11-21T07:55:23;8.63;;;4.47;;
80536;SDS011;69867;47.074;15.404;2023-11-21T07:57:48;8.98;;;4.55;;
80536;SDS011;69867;47.074;15.404;2023-11-21T08:00:13;9.60;;;4.90;;
80536;SDS011;69867;47.074;15.404;2023-11-21T08:02:39;7.88;;;4.72;;
80536;SDS011;69867;47.074;15.404;2023-11-21T08:05:05;7.53;;;5.22;;
80536;SDS011;69867;47.074;15.404;2023-11-21T08:07:30;11.45;;;5.68;;
80536;SDS011;69867;47.074;15.404;2023-11-21T08:09:56;13.15;;;8.27;;
80536;SDS011;69867;47.074;15.404;2023-11-21T08:12:21;25.10;;;16.90;;
80536;SDS011;69867;47.074;15.404;2023-11-21T08:14:46;24.40;;;16.02;;
80536;SDS011;69867;47.074;15.404;2023-11-21T08:17:11;20.92;;;12.68;;
80536;SDS011;69867;47.074;15.404;2023-11-21T08:19:37;39.97;;;22.45;;
80536;SDS011;69867;47.074;15.404;2023-11-21T08:22:03;49.03;;;28.27;;
80536;SDS011;69867;47.074;15.404;2023-11-21T08:24:29;44.90;;;26.30;;
80536;SDS011;69867;47.074;15.404;2023-11-21T08:26:54;43.25;;;27.27;;
80536;SDS011;69867;47.074;15.404;2023-11-21T08:29:19;40.95;;;25.77;;
80536;SDS011;69867;47.074;15.404;2023-11-21T08:31:45;50.45;;;28.52;;
80536;SDS011;69867;47.074;15.404;2023-11-21T08:34:10;56.67;;;31.52;;
80536;SDS011;69867;47.074;15.404;2023-11-21T08:36:35;56.63;;;30.50;;
80536;SDS011;69867;47.074;15.404;2023-11-21T08:39:01;50.88;;;29.45;;
80536;SDS011;69867;47.074;15.404;2023-11-21T08:41:26;41.80;;;23.85;;
80536;SDS011;69867;47.074;15.404;2023-11-21T08:43:51;37.25;;;20.85;;
80536;SDS011;69867;47.074;15.404;2023-11-21T08:46:16;32.50;;;18.27;;
80536;SDS011;69867;47.074;15.404;2023-11-21T08:48:42;30.88;;;16.63;;
80536;SDS011;69867;47.074;15.404;2023-11-21T08:51:09;28.65;;;16.55;;
80536;SDS011;69867;47.074;15.404;2023-11-21T08:53:35;29.88;;;15.73;;
80536;SDS011;69867;47.074;15.404;2023-11-21T08:56:01;25.20;;;15.68;;
80536;SDS011;69867;47.074;15.404;2023-11-21T08:58:26;30.25;;;17.30;;
80536;SDS011;69867;47.074;15.404;2023-11-21T09:00:51;35.35;;;19.70;;
80536;SDS011;69867;47.074;15.404;2023-11-21T09:03:17;32.72;;;19.50;;
80536;SDS011;69867;47.074;15.404;2023-11-21T09:05:42;27.35;;;16.40;;
80536;SDS011;69867;47.074;15.404;2023-11-21T09:08:07;29.88;;;16.52;;
80536;SDS011;69867;47.074;15.404;2023-11-21T09:10:33;28.10;;;15.60;;
80536;SDS011;69867;47.074;15.404;2023-11-21T09:12:59;33.45;;;19.90;;
80536;SDS011;69867;47.074;15.404;2023-11-21T09:15:24;29.27;;;17.92;;
80536;SDS011;69867;47.074;15.404;2023-11-21T09:17:49;35.50;;;19.92;;
80536;SDS011;69867;47.074;15.404;2023-11-21T09:20:15;33.65;;;19.35;;
80536;SDS011;69867;47.074;15.404;2023-11-21T09:22:40;28.88;;;16.55;;
80536;SDS011;69867;47.074;15.404;2023-11-21T09:25:05;36.58;;;20.90;;
80536;SDS011;69867;47.074;15.404;2023-11-21T09:27:31;36.03;;;19.17;;
80536;SDS011;69867;47.074;15.404;2023-11-21T09:29:57;35.63;;;20.58;;
80536;SDS011;69867;47.074;15.404;2023-11-21T09:32:22;33.17;;;18.38;;
80536;SDS011;69867;47.074;15.404;2023-11-21T09:34:50;34.65;;;20.23;;
80536;SDS011;69867;47.074;15.404;2023-11-21T09:37:16;27.50;;;15.95;;
80536;SDS011;69867;47.074;15.404;2023-11-21T09:39:41;27.98;;;16.02;;
80536;SDS011;69867;47.074;15.404;2023-11-21T09:47:10;22.30;;;11.88;;
80536;SDS011;69867;47.074;15.404;2023-11-21T09:49:40;19.23;;;9.98;;
80536;SDS011;69867;47.074;15.404;2023-11-21T09:52:06;14.88;;;8.35;;
80536;SDS011;69867;47.074;15.404;2023-11-21T09:54:34;17.63;;;9.07;;
80536;SDS011;69867;47.074;15.404;2023-11-21T09:57:00;16.00;;;9.30;;
80536;SDS011;69867;47.074;15.404;2023-11-21T09:59:29;15.57;;;8.63;;
80536;SDS011;69867;47.074;15.404;2023-11-21T10:01:56;16.98;;;8.93;;
80536;SDS011;69867;47.074;15.404;2023-11-21T10:04:22;15.35;;;8.70;;
80536;SDS011;69867;47.074;15.404;2023-11-21T10:06:47;13.10;;;8.43;;
80536;SDS011;69867;47.074;15.404;2023-11-21T10:09:15;13.98;;;8.40;;
80536;SDS011;69867;47.074;15.404;2023-11-21T10:11:42;16.23;;;8.80;;
80536;SDS011;69867;47.074;15.404;2023-11-21T10:14:08;13.23;;;8.35;;
80536;SDS011;69867;47.074;15.404;2023-11-21T10:16:38;14.82;;;8.27;;
80536;SDS011;69867;47.074;15.404;2023-11-21T10:19:05;15.02;;;8.70;;
80536;SDS011;69867;47.074;15.404;2023-11-21T10:21:34;18.00;;;8.30;;
80536;SDS011;69867;47.074;15.404;2023-11-21T10:24:00;12.38;;;7.88;;
80536;SDS011;69867;47.074;15.404;2023-11-21T10:26:28;13.52;;;7.30;;
80536;SDS011;69867;47.074;15.404;2023-11-21T10:29:01;13.65;;;6.95;;
80536;SDS011;69867;47.074;15.404;2023-11-21T10:31:27;14.95;;;7.90;;
80536;SDS011;69867;47.074;15.404;2023-11-21T10:33:53;10.15;;;6.38;;
80536;SDS011;69867;47.074;15.404;2023-11-21T10:36:27;11.48;;;6.53;;
80536;SDS011;69867;47.074;15.404;2023-11-21T10:38:53;14.13;;;7.28;;
80536;SDS011;69867;47.074;15.404;2023-11-21T10:41:19;12.07;;;5.80;;
80536;SDS011;69867;47.074;15.404;2023-11-21T10:43:45;14.15;;;6.38;;
80536;SDS011;69867;47.074;15.404;2023-11-21T10:46:10;11.55;;;6.97;;
80536;SDS011;69867;47.074;15.404;2023-11-21T10:48:36;12.07;;;5.68;;
80536;SDS011;69867;47.074;15.404;2023-11-21T10:51:05;10.55;;;5.78;;
80536;SDS011;69867;47.074;15.404;2023-11-21T10:53:32;12.45;;;6.28;;
80536;SDS011;69867;47.074;15.404;2023-11-21T10:56:06;11.88;;;5.82;;
80536;SDS011;69867;47.074;15.404;2023-11-21T10:58:34;13.18;;;6.22;;
80536;SDS011;69867;47.074;15.404;2023-11-21T11:01:00;11.07;;;5.68;;
80536;SDS011;69867;47.074;15.404;2023-11-21T11:03:28;10.43;;;5.95;;
80536;SDS011;69867;47.074;15.404;2023-11-21T11:05:54;10.65;;;4.80;;
80536;SDS011;69867;47.074;15.404;2023-11-21T11:08:20;9.25;;;5.25;;
80536;SDS011;69867;47.074;15.404;2023-11-21T11:10:46;10.82;;;5.88;;
80536;SDS011;69867;47.074;15.404;2023-11-21T11:13:12;10.00;;;5.68;;
80536;SDS011;69867;47.074;15.404;2023-11-21T11:15:37;11.00;;;5.55;;
80536;SDS011;69867;47.074;15.404;2023-11-21T11:18:03;9.15;;;5.18;;
80536;SDS011;69867;47.074;15.404;2023-11-21T11:20:36;9.60;;;4.82;;
80536;SDS011;69867;47.074;15.404;2023-11-21T11:26:18;9.00;;;4.00;;
80536;SDS011;69867;47.074;15.404;2023-11-21T11:35:23;4.57;;;2.72;;
80536;SDS011;69867;47.074;15.404;2023-11-21T11:37:55;6.93;;;3.03;;
80536;SDS011;69867;47.074;15.404;2023-11-21T11:40:21;5.35;;;2.90;;
80536;SDS011;69867;47.074;15.404;2023-11-21T11:42:57;6.50;;;2.53;;
80536;SDS011;69867;47.074;15.404;2023-11-21T11:45:23;4.93;;;2.40;;
80536;SDS011;69867;47.074;15.404;2023-11-21T11:47:56;5.03;;;2.58;;
80536;SDS011;69867;47.074;15.404;2023-11-21T11:50:22;6.13;;;3.28;;
80536;SDS011;69867;47.074;15.404;2023-11-21T11:52:48;5.30;;;2.83;;
80536;SDS011;69867;47.074;15.404;2023-11-21T11:55:15;5.43;;;2.97;;
80536;SDS011;69867;47.074;15.404;2023-11-21T11:57:41;5.65;;;3.15;;
80536;SDS011;69867;47.074;15.404;2023-11-21T12:00:08;5.63;;;2.70;;
80536;SDS011;69867;47.074;15.404;2023-11-21T12:02:34;6.95;;;3.40;;
80536;SDS011;69867;47.074;15.404;2023-11-21T12:05:00;6.82;;;3.92;;
80536;SDS011;69867;47.074;15.404;2023-11-21T12:07:38;7.82;;;4.53;;
80536;SDS011;69867;47.074;15.404;2023-11-21T12:10:06;9.52;;;4.10;;
80536;SDS011;69867;47.074;15.404;2023-11-21T12:12:31;12.20;;;5.03;;
80536;SDS011;69867;47.074;15.404;2023-11-21T12:14:57;10.07;;;5.63;;
80536;SDS011;69867;47.074;15.404;2023-11-21T12:17:22;7.10;;;4.82;;
80536;SDS011;69867;47.074;15.404;2023-11-21T12:19:47;10.85;;;5.03;;
80536;SDS011;69867;47.074;15.404;2023-11-21T12:22:13;8.52;;;4.80;;
80536;SDS011;69867;47.074;15.404;2023-11-21T12:24:38;9.77;;;5.13;;
80536;SDS011;69867;47.074;15.404;2023-11-21T12:27:03;9.70;;;4.32;;
80536;SDS011;69867;47.074;15.404;2023-11-21T12:29:29;7.18;;;4.30;;
80536;SDS011;69867;47.074;15.404;2023-11-21T12:31:55;7.80;;;4.32;;
80536;SDS011;69867;47.074;15.404;2023-11-21T12:34:21;8.50;;;4.45;;
80536;SDS011;69867;47.074;15.404;2023-11-21T12:36:46;9.00;;;4.50;;
80536;SDS011;69867;47.074;15.404;2023-11-21T12:39:11;8.93;;;4.72;;
80536;SDS011;69867;47.074;15.404;2023-11-21T12:41:37;9.70;;;4.65;;
80536;SDS011;69867;47.074;15.404;2023-11-21T12:44:02;8.60;;;4.30;;
80536;SDS011;69867;47.074;15.404;2023-11-21T12:46:27;8.07;;;5.03;;
80536;SDS011;69867;47.074;15.404;2023-11-21T12:48:53;8.77;;;4.65;;
80536;SDS011;69867;47.074;15.404;2023-11-21T12:51:18;9.98;;;4.55;;
80536;SDS011;69867;47.074;15.404;2023-11-21T12:53:44;8.63;;;4.95;;
80536;SDS011;69867;47.074;15.404;2023-11-21T12:56:11;8.70;;;4.25;;
80536;SDS011;69867;47.074;15.404;2023-11-21T12:58:37;10.25;;;4.85;;
80536;SDS011;69867;47.074;15.404;2023-11-21T13:01:04;7.78;;;4.00;;
80536;SDS011;69867;47.074;15.404;2023-11-21T13:03:31;7.20;;;4.30;;
80536;SDS011;69867;47.074;15.404;2023-11-21T13:05:56;8.68;;;4.28;;
80536;SDS011;69867;47.074;15.404;2023-11-21T13:08:22;9.15;;;4.90;;
80536;SDS011;69867;47.074;15.404;2023-11-21T13:10:51;8.32;;;3.67;;
80536;SDS011;69867;47.074;15.404;2023-11-21T13:13:20;7.53;;;4.40;;
80536;SDS011;69867;47.074;15.404;2023-11-21T13:15:56;6.55;;;4.20;;
80536;SDS011;69867;47.074;15.404;2023-11-21T13:18:23;8.73;;;4.55;;
80536;SDS011;69867;47.074;15.404;2023-11-21T13:20:49;8.45;;;4.10;;
80536;SDS011;69867;47.074;15.404;2023-11-21T13:23:15;8.43;;;4.47;;
80536;SDS011;69867;47.074;15.404;2023-11-21T13:25:40;6.90;;;3.92;;
80536;SDS011;69867;47.074;15.404;2023-11-21T13:28:06;8.88;;;3.67;;
80536;SDS011;69867;47.074;15.404;2023-11-21T13:30:32;7.15;;;3.97;;
80536;SDS011;69867;47.074;15.404;2023-11-21T13:32:58;7.57;;;3.40;;
80536;SDS011;69867;47.074;15.404;2023-11-21T13:35:24;6.60;;;4.00;;
80536;SDS011;69867;47.074;15.404;2023-11-21T13:37:50;7.68;;;4.07;;
80536;SDS011;69867;47.074;15.404;2023-11-21T13:40:16;6.63;;;3.90;;
80536;SDS011;69867;47.074;15.404;2023-11-21T13:42:41;7.75;;;4.43;;
80536;SDS011;69867;47.074;15.404;2023-11-21T13:45:07;17.42;;;8.10;;
80536;SDS011;69867;47.074;15.404;2023-11-21T13:47:33;13.40;;;7.50;;
80536;SDS011;69867;47.074;15.404;2023-11-21T13:49:58;12.23;;;5.65;;
80536;SDS011;69867;47.074;15.404;2023-11-21T13:52:23;9.95;;;5.72;;
80536;SDS011;69867;47.074;15.404;2023-11-21T13:54:49;8.90;;;4.90;;
80536;SDS011;69867;47.074;15.404;2023-11-21T13:57:14;9.63;;;5.60;;
80536;SDS011;69867;47.074;15.404;2023-11-21T13:59:39;8.60;;;5.00;;
80536;SDS011;69867;47.074;15.404;2023-11-21T14:02:05;8.95;;;4.90;;
80536;SDS011;69867;47.074;15.404;2023-11-21T14:04:30;8.63;;;5.05;;
80536;SDS011;69867;47.074;15.404;2023-11-21T14:06:55;9.77;;;5.15;;
80536;SDS011;69867;47.074;15.404;2023-11-21T14:09:21;9.65;;;5.32;;
80536;SDS011;69867;47.074;15.404;2023-11-21T14:11:49;9.18;;;5.47;;
80536;SDS011;69867;47.074;15.404;2023-11-21T14:14:18;9.65;;;5.25;;
80536;SDS011;69867;47.074;15.404;2023-11-21T14:16:47;8.82;;;4.72;;
80536;SDS011;69867;47.074;15.404;2023-11-21T14:19:12;7.50;;;4.43;;
80536;SDS011;69867;47.074;15.404;2023-11-21T14:21:38;8.85;;;4.78;;
80536;SDS011;69867;47.074;15.404;2023-11-21T14:24:03;9.68;;;5.30;;
80536;SDS011;69867;47.074;15.404;2023-11-21T14:26:29;10.25;;;5.60;;
80536;SDS011;69867;47.074;15.404;2023-11-21T14:28:54;8.60;;;5.28;;
80536;SDS011;69867;47.074;15.404;2023-11-21T14:31:20;9.65;;;4.93;;
80536;SDS011;69867;47.074;15.404;2023-11-21T14:33:45;8.95;;;5.13;;